createdAt,value
2023-02-25T00:01:51.289Z,4.30
2023-02-25T00:04:29.725Z,4.70
2023-02-25T00:06:57.907Z,4.36
2023-02-25T00:09:25.991Z,4.28
2023-02-25T00:11:54.108Z,4.20
2023-02-25T00:14:22.343Z,4.08
2023-02-25T00:16:51.168Z,4.27
2023-02-25T00:19:19.291Z,4.15
2023-02-25T00:21:48.846Z,3.95
2023-02-25T00:24:17.323Z,3.94
2023-02-25T00:26:45.788Z,4.21
2023-02-25T00:29:15.983Z,4.34
2023-02-25T00:31:44.313Z,3.89
2023-02-25T00:34:12.563Z,4.02
2023-02-25T00:36:41.024Z,4.03
2023-02-25T00:39:10.798Z,3.83
2023-02-25T00:41:39.801Z,3.91
2023-02-25T00:44:08.368Z,4.21
2023-02-25T00:46:36.955Z,4.38
2023-02-25T00:49:05.093Z,4.32
2023-02-25T00:51:35.184Z,3.83
2023-02-25T00:54:03.405Z,3.86
2023-02-25T00:56:32.897Z,3.88
2023-02-25T00:59:01.183Z,3.92
2023-02-25T01:01:33.464Z,3.88
2023-02-25T01:04:02.510Z,3.92
2023-02-25T01:06:33.758Z,3.47
2023-02-25T01:09:02.357Z,3.60
2023-02-25T01:11:34.558Z,3.49
2023-02-25T01:14:06.930Z,3.61
2023-02-25T01:16:36.509Z,3.59
2023-02-25T01:19:07.905Z,3.52
2023-02-25T01:21:39.087Z,3.76
2023-02-25T01:24:09.964Z,3.75
2023-02-25T01:26:42.322Z,3.89
2023-02-25T01:29:11.868Z,3.94
2023-02-25T01:31:40.335Z,4.06
2023-02-25T01:34:11.745Z,4.07
2023-02-25T01:36:41.573Z,3.83
2023-02-25T01:39:10.624Z,3.75
2023-02-25T01:41:43.429Z,3.74
2023-02-25T01:44:14.647Z,3.60
2023-02-25T01:46:44.005Z,4.20
2023-02-25T01:49:16.496Z,4.14
2023-02-25T01:51:48.671Z,3.85
2023-02-25T01:54:18.413Z,4.02
2023-02-25T01:56:51.487Z,4.02
2023-02-25T01:59:24.384Z,3.91
2023-02-25T02:01:52.909Z,4.38
2023-02-25T02:04:22.401Z,4.05
2023-02-25T02:06:51.765Z,3.89
2023-02-25T02:09:22.362Z,4.01
2023-02-25T02:11:53.355Z,3.96
2023-02-25T02:14:27.030Z,4.17
2023-02-25T02:17:12.754Z,4.23
2023-02-25T02:20:00.416Z,4.18
2023-02-25T02:22:33.842Z,4.01
2023-02-25T02:25:39.186Z,4.27
2023-02-25T02:28:48.726Z,4.26
2023-02-25T02:31:49.474Z,4.23
2023-02-25T02:34:30.767Z,4.13
2023-02-25T02:37:08.003Z,4.25
2023-02-25T02:39:48.651Z,4.15
2023-02-25T02:42:27.623Z,4.38
2023-02-25T02:45:03.016Z,4.67
2023-02-25T02:47:36.237Z,4.82
2023-02-25T02:50:08.017Z,4.81
2023-02-25T02:52:40.835Z,4.75
2023-02-25T02:55:22.242Z,4.63
2023-02-25T02:57:55.440Z,4.73
2023-02-25T03:00:27.283Z,4.67
2023-02-25T03:03:02.845Z,4.68
2023-02-25T03:05:34.478Z,4.93
2023-02-25T03:08:09.050Z,4.91
2023-02-25T03:10:37.494Z,4.84
2023-02-25T03:13:05.958Z,4.86
2023-02-25T03:15:35.527Z,5.19
2023-02-25T03:18:09.042Z,5.92
2023-02-25T03:20:41.646Z,5.79
2023-02-25T03:23:13.898Z,5.61
2023-02-25T03:25:47.870Z,5.42
2023-02-25T03:28:30.001Z,5.47
2023-02-25T03:31:06.455Z,5.66
2023-02-25T03:33:41.344Z,5.79
2023-02-25T03:36:14.283Z,5.76
2023-02-25T03:38:46.312Z,5.71
2023-02-25T03:41:16.615Z,5.85
2023-02-25T03:43:49.460Z,5.98
2023-02-25T03:46:20.881Z,6.26
2023-02-25T03:48:52.386Z,6.68
2023-02-25T03:51:25.270Z,7.10
2023-02-25T03:53:53.538Z,7.62
2023-02-25T03:56:27.712Z,7.66
2023-02-25T03:58:55.999Z,7.75
2023-02-25T04:01:29.316Z,7.77
2023-02-25T04:03:58.900Z,7.88
2023-02-25T04:06:27.049Z,8.04
2023-02-25T04:08:55.195Z,7.95
2023-02-25T04:11:23.871Z,8.02
2023-02-25T04:13:52.106Z,8.26
2023-02-25T04:16:21.055Z,8.21
2023-02-25T04:18:49.399Z,8.37
2023-02-25T04:21:29.944Z,8.31
2023-02-25T04:23:58.874Z,8.47
2023-02-25T04:26:27.155Z,8.54
2023-02-25T04:28:55.576Z,8.52
2023-02-25T04:31:24.076Z,8.55
2023-02-25T04:33:52.391Z,8.43
2023-02-25T04:36:29.669Z,8.58
2023-02-25T04:38:59.129Z,8.50
2023-02-25T04:41:30.932Z,8.55
2023-02-25T04:43:59.445Z,8.63
2023-02-25T04:46:27.904Z,8.62
2023-02-25T04:48:56.021Z,8.51
2023-02-25T04:51:24.281Z,8.51
2023-02-25T04:53:54.135Z,8.46
2023-02-25T04:56:22.740Z,8.44
2023-02-25T04:58:51.244Z,8.41
2023-02-25T05:01:19.731Z,8.49
2023-02-25T05:03:47.876Z,8.53
2023-02-25T05:06:16.010Z,8.40
2023-02-25T05:08:44.113Z,8.33
2023-02-25T05:11:13.635Z,8.35
2023-02-25T05:13:41.708Z,8.46
2023-02-25T05:16:12.855Z,8.41
2023-02-25T05:18:42.677Z,8.17
2023-02-25T05:21:12.387Z,8.08
2023-02-25T05:23:40.508Z,8.13
2023-02-25T05:26:09.403Z,8.06
2023-02-25T05:28:39.515Z,8.05
2023-02-25T05:31:08.804Z,8.32
2023-02-25T05:33:37.860Z,8.15
2023-02-25T05:36:07.485Z,8.01
2023-02-25T05:38:36.843Z,7.84
2023-02-25T05:41:07.004Z,7.63
2023-02-25T05:43:36.174Z,7.02
2023-02-25T05:46:11.593Z,7.10
2023-02-25T05:48:41.309Z,6.91
2023-02-25T05:51:11.914Z,7.11
2023-02-25T05:53:40.357Z,7.01
2023-02-25T05:56:10.229Z,7.17
2023-02-25T05:58:38.404Z,6.77
2023-02-25T06:01:11.530Z,6.72
2023-02-25T06:03:40.747Z,6.60
2023-02-25T06:06:10.453Z,6.56
2023-02-25T06:08:39.619Z,6.62
2023-02-25T06:11:08.563Z,6.59
2023-02-25T06:13:36.968Z,6.79
2023-02-25T06:16:06.014Z,6.43
2023-02-25T06:18:40.080Z,6.77
2023-02-25T06:21:11.317Z,6.68
2023-02-25T06:23:41.087Z,6.65
2023-02-25T06:26:12.210Z,6.77
2023-02-25T06:28:40.381Z,6.91
2023-02-25T06:31:10.444Z,6.82
2023-02-25T06:33:40.380Z,6.76
2023-02-25T06:36:09.455Z,6.66
2023-02-25T06:38:37.777Z,6.87
2023-02-25T06:41:10.178Z,6.84
2023-02-25T06:43:39.561Z,6.86
2023-02-25T06:46:09.385Z,6.60
2023-02-25T06:48:40.888Z,6.70
2023-02-25T06:51:11.907Z,6.80
2023-02-25T06:56:42.709Z,6.84
2023-02-25T06:59:11.049Z,6.89
2023-02-25T07:01:39.521Z,6.92
2023-02-25T07:04:09.194Z,7.07
2023-02-25T07:06:37.961Z,7.06
2023-02-25T07:09:10.079Z,6.94
2023-02-25T07:11:40.905Z,6.98
2023-02-25T07:14:14.602Z,6.86
2023-02-25T07:16:42.733Z,6.75
2023-02-25T07:19:17.778Z,6.75
2023-02-25T07:21:52.720Z,6.78
2023-02-25T07:24:21.119Z,6.68
2023-02-25T07:26:49.422Z,6.74
2023-02-25T07:29:17.563Z,7.11
2023-02-25T07:31:46.183Z,7.43
2023-02-25T07:34:16.242Z,7.55
2023-02-25T07:36:44.471Z,7.66
2023-02-25T07:39:13.551Z,7.59
2023-02-25T07:41:44.662Z,7.50
2023-02-25T07:44:13.641Z,7.60
2023-02-25T07:46:42.945Z,7.75
2023-02-25T07:49:11.114Z,7.71
2023-02-25T07:51:43.470Z,7.65
2023-02-25T07:54:11.736Z,7.63
2023-02-25T07:56:39.852Z,7.79
2023-02-25T07:59:07.956Z,7.76
2023-02-25T08:01:37.510Z,7.70
2023-02-25T08:04:07.699Z,7.78
2023-02-25T08:06:37.688Z,7.71
2023-02-25T08:09:07.621Z,7.73
2023-02-25T08:11:36.009Z,7.71
2023-02-25T08:14:04.979Z,7.63
2023-02-25T08:16:34.332Z,7.70
2023-02-25T08:19:02.469Z,7.91
2023-02-25T08:21:31.433Z,8.03
2023-02-25T08:24:00.388Z,8.19
2023-02-25T08:26:30.058Z,8.30
2023-02-25T08:28:58.706Z,8.27
2023-02-25T08:31:27.767Z,8.24
2023-02-25T08:33:57.319Z,8.33
2023-02-25T08:36:26.953Z,8.58
2023-02-25T08:38:57.459Z,8.72
2023-02-25T08:41:27.426Z,8.79
2023-02-25T08:43:58.279Z,8.94
2023-02-25T08:46:29.509Z,9.69
2023-02-25T08:48:58.468Z,10.95
2023-02-25T08:51:34.275Z,11.11
2023-02-25T08:54:04.854Z,10.77
2023-02-25T08:56:33.180Z,10.57
2023-02-25T08:59:03.005Z,10.37
2023-02-25T09:01:45.005Z,10.08
2023-02-25T09:04:14.405Z,9.91
2023-02-25T09:06:42.498Z,10.38
2023-02-25T09:09:12.405Z,10.83
2023-02-25T09:11:41.010Z,11.14
2023-02-25T09:14:11.568Z,11.08
2023-02-25T09:16:39.835Z,12.57
2023-02-25T09:19:08.138Z,14.65
2023-02-25T09:21:37.192Z,16.45
2023-02-25T09:24:05.802Z,17.22
2023-02-25T09:26:34.087Z,17.62
2023-02-25T09:29:02.324Z,19.12
2023-02-25T09:31:33.797Z,18.50
2023-02-25T09:34:04.667Z,18.76
2023-02-25T09:36:33.502Z,18.19
2023-02-25T09:39:01.949Z,17.73
2023-02-25T09:41:36.473Z,16.37
2023-02-25T09:44:08.644Z,15.66
2023-02-25T09:46:41.837Z,17.98
2023-02-25T09:49:16.734Z,21.17
2023-02-25T09:51:50.414Z,21.90
2023-02-25T09:54:24.368Z,23.54
2023-02-25T09:56:55.647Z,25.98
2023-02-25T09:59:24.597Z,25.69
2023-02-25T10:01:58.347Z,24.08
2023-02-25T10:04:33.682Z,25.33
2023-02-25T10:07:09.595Z,24.59
2023-02-25T10:09:46.577Z,21.18
2023-02-25T10:12:27.428Z,20.32
2023-02-25T10:15:22.002Z,22.03
2023-02-25T10:18:07.070Z,23.63
2023-02-25T10:20:53.212Z,24.74
2023-02-25T10:23:37.915Z,24.76
2023-02-25T10:26:13.411Z,24.56
2023-02-25T10:28:44.112Z,24.45
2023-02-25T10:31:18.595Z,24.72
2023-02-25T10:33:50.670Z,24.83
2023-02-25T10:36:20.753Z,24.62
2023-02-25T10:38:51.083Z,23.74
2023-02-25T10:41:22.746Z,26.32
2023-02-25T10:43:52.689Z,26.34
2023-02-25T10:46:27.158Z,25.21
2023-02-25T10:49:00.399Z,25.36
2023-02-25T10:51:29.926Z,26.17
2023-02-25T10:54:06.509Z,25.48
2023-02-25T10:56:42.617Z,26.43
2023-02-25T10:59:31.253Z,27.51
2023-02-25T11:02:01.476Z,27.14
2023-02-25T11:04:36.371Z,26.21
2023-02-25T11:07:25.757Z,25.26
2023-02-25T11:10:09.344Z,23.97
2023-02-25T11:12:42.373Z,24.45
2023-02-25T11:15:43.078Z,27.23
2023-02-25T11:18:21.771Z,27.86
2023-02-25T11:20:54.735Z,27.90
2023-02-25T11:23:28.174Z,28.45
2023-02-25T11:25:57.577Z,28.78
2023-02-25T11:28:32.393Z,27.92
2023-02-25T11:31:19.684Z,27.54
2023-02-25T11:33:52.836Z,28.04
2023-02-25T11:36:31.112Z,27.81
2023-02-25T11:39:17.203Z,27.90
2023-02-25T11:41:46.609Z,28.47
2023-02-25T11:44:24.295Z,29.01
2023-02-25T11:47:00.153Z,27.95
2023-02-25T11:49:47.743Z,28.21
2023-02-25T11:52:24.177Z,26.93
2023-02-25T11:55:12.762Z,27.13
2023-02-25T11:57:48.489Z,24.02
2023-02-25T12:00:25.682Z,22.12
2023-02-25T12:03:36.127Z,23.34
2023-02-25T12:06:17.447Z,22.67
2023-02-25T12:09:34.006Z,23.42
2023-02-25T12:12:33.626Z,24.16
2023-02-25T12:15:43.234Z,25.16
2023-02-25T12:19:04.384Z,28.22
2023-02-25T12:22:13.197Z,27.61
2023-02-25T12:24:57.931Z,27.76
2023-02-25T12:28:01.631Z,26.39
2023-02-25T12:30:54.761Z,26.35
2023-02-25T12:33:34.813Z,26.43
2023-02-25T12:36:27.658Z,23.92
2023-02-25T12:39:33.952Z,23.34
2023-02-25T12:42:21.326Z,23.95
2023-02-25T12:45:23.891Z,24.62
2023-02-25T12:48:06.532Z,23.97
2023-02-25T12:50:58.897Z,24.77
2023-02-25T12:53:38.678Z,25.25
2023-02-25T12:56:34.505Z,24.09
2023-02-25T12:59:22.742Z,25.14
2023-02-25T13:02:02.134Z,24.84
2023-02-25T13:04:42.859Z,22.04
2023-02-25T13:07:48.277Z,23.12
2023-02-25T13:10:38.484Z,22.84
2023-02-25T13:13:42.843Z,21.86
2023-02-25T13:16:28.460Z,22.35
2023-02-25T13:19:12.815Z,22.72
2023-02-25T13:21:56.466Z,20.12
2023-02-25T13:24:49.177Z,18.97
2023-02-25T13:27:44.179Z,19.09
2023-02-25T13:30:27.449Z,17.99
2023-02-25T13:33:12.637Z,18.09
2023-02-25T13:35:55.130Z,17.81
2023-02-25T13:38:41.598Z,17.34
2023-02-25T13:41:28.113Z,16.29
2023-02-25T13:44:19.200Z,15.60
2023-02-25T13:47:04.160Z,15.20
2023-02-25T13:49:55.970Z,15.08
2023-02-25T13:52:31.683Z,14.91
2023-02-25T13:55:37.046Z,14.37
2023-02-25T13:58:37.419Z,13.93
2023-02-25T14:01:43.526Z,13.55
2023-02-25T14:05:00.434Z,13.65
2023-02-25T14:07:47.202Z,13.57
2023-02-25T14:10:46.607Z,13.44
2023-02-25T14:13:59.511Z,13.19
2023-02-25T14:16:46.835Z,12.94
2023-02-25T14:19:30.483Z,13.26
2023-02-25T14:22:24.411Z,13.22
2023-02-25T14:25:07.502Z,12.87
2023-02-25T14:27:42.241Z,12.91
2023-02-25T14:30:25.292Z,12.73
2023-02-25T14:33:06.728Z,12.69
2023-02-25T14:35:53.595Z,12.83
2023-02-25T14:38:38.379Z,12.84
2023-02-25T14:41:29.673Z,12.42
2023-02-25T14:44:05.216Z,12.51
2023-02-25T14:46:40.439Z,12.55
2023-02-25T14:49:15.126Z,12.50
2023-02-25T14:52:20.960Z,12.28
2023-02-25T14:55:31.324Z,12.23
2023-02-25T14:58:45.740Z,11.96
2023-02-25T15:02:07.199Z,11.61
2023-02-25T15:05:16.607Z,11.45
2023-02-25T15:08:19.136Z,11.20
2023-02-25T15:11:12.495Z,11.05
2023-02-25T15:14:20.400Z,11.00
2023-02-25T15:17:22.004Z,11.04
2023-02-25T15:20:15.566Z,10.74
2023-02-25T15:22:56.988Z,10.94
2023-02-25T15:25:39.877Z,10.85
2023-02-25T15:28:41.186Z,10.87
2023-02-25T15:31:30.387Z,10.52
2023-02-25T15:34:36.398Z,10.74
2023-02-25T15:37:33.376Z,10.52
2023-02-25T15:40:24.484Z,10.71
2023-02-25T15:42:55.470Z,10.40
2023-02-25T15:45:39.790Z,10.30
2023-02-25T15:48:35.449Z,10.37
2023-02-25T15:51:10.414Z,10.48
2023-02-25T15:53:48.822Z,10.44
2023-02-25T15:56:48.247Z,10.47
2023-02-25T15:59:49.847Z,10.37
2023-02-25T16:02:54.376Z,10.09
2023-02-25T16:08:27.098Z,9.90
2023-02-25T16:11:00.425Z,9.96
2023-02-25T16:13:33.275Z,9.80
2023-02-25T16:16:07.820Z,10.04
2023-02-25T16:18:43.565Z,9.84
2023-02-25T16:21:22.492Z,9.55
2023-02-25T16:23:55.162Z,9.81
2023-02-25T16:26:37.381Z,9.18
2023-02-25T16:29:25.275Z,8.50
2023-02-25T16:32:03.519Z,8.39
2023-02-25T16:34:41.551Z,8.38
2023-02-25T16:37:18.976Z,8.28
2023-02-25T16:39:50.313Z,8.13
2023-02-25T16:42:21.912Z,8.32
2023-02-25T16:45:00.769Z,7.96
2023-02-25T16:47:32.772Z,8.12
2023-02-25T16:50:08.428Z,8.03
2023-02-25T16:52:41.745Z,8.33
2023-02-25T16:55:21.985Z,7.92
2023-02-25T16:58:04.412Z,7.61
2023-02-25T17:00:34.836Z,7.49
2023-02-25T17:03:12.622Z,7.51
2023-02-25T17:05:41.411Z,6.94
2023-02-25T17:08:17.171Z,6.84
2023-02-25T17:10:49.994Z,6.67
2023-02-25T17:13:25.420Z,6.65
2023-02-25T17:15:56.052Z,6.40
2023-02-25T17:18:31.194Z,6.39
2023-02-25T17:21:07.323Z,6.35
2023-02-25T17:23:42.216Z,6.36
2023-02-25T17:26:17.507Z,6.27
2023-02-25T17:28:49.063Z,6.24
2023-02-25T17:31:19.244Z,6.06
2023-02-25T17:33:50.782Z,5.93
2023-02-25T17:36:23.171Z,6.09
2023-02-25T17:38:58.038Z,5.89
2023-02-25T17:41:30.115Z,5.76
2023-02-25T17:43:59.677Z,5.89
2023-02-25T17:46:36.348Z,5.85
2023-02-25T17:49:15.211Z,5.48
2023-02-25T17:51:44.724Z,5.55
2023-02-25T17:54:20.345Z,5.39
2023-02-25T17:56:58.400Z,5.58
2023-02-25T17:59:42.605Z,5.45
2023-02-25T18:02:35.919Z,5.35
2023-02-25T18:05:27.861Z,5.25
2023-02-25T18:08:18.825Z,5.12
2023-02-25T18:10:52.554Z,5.17
2023-02-25T18:13:27.979Z,5.07
2023-02-25T18:16:35.685Z,5.19
2023-02-25T18:19:11.650Z,5.17
2023-02-25T18:21:44.762Z,5.13
2023-02-25T18:24:26.850Z,4.95
2023-02-25T18:27:10.862Z,4.98
2023-02-25T18:29:42.762Z,4.90
2023-02-25T18:32:13.538Z,4.86
2023-02-25T18:34:43.400Z,4.83
2023-02-25T18:37:17.618Z,4.90
2023-02-25T18:39:49.270Z,4.95
2023-02-25T18:42:20.349Z,4.87
2023-02-25T18:44:51.395Z,4.83
2023-02-25T18:47:20.595Z,4.72
2023-02-25T18:49:49.692Z,4.63
2023-02-25T18:52:24.121Z,4.68
2023-02-25T18:54:53.743Z,4.58
2023-02-25T18:57:25.686Z,4.57
2023-02-25T18:59:58.554Z,4.63
2023-02-25T19:02:32.462Z,4.63
2023-02-25T19:05:03.439Z,4.54
2023-02-25T19:07:36.054Z,4.53
2023-02-25T19:10:08.913Z,4.52
2023-02-25T19:12:41.558Z,4.42
2023-02-25T19:15:16.317Z,4.44
2023-02-25T19:17:46.772Z,4.44
2023-02-25T19:20:17.858Z,4.43
2023-02-25T19:22:49.570Z,4.38
2023-02-25T19:25:23.825Z,4.40
2023-02-25T19:27:55.759Z,4.28
2023-02-25T19:30:30.393Z,4.18
2023-02-25T19:33:04.331Z,4.13
2023-02-25T19:35:36.386Z,4.17
2023-02-25T19:38:07.982Z,4.09
2023-02-25T19:40:38.875Z,4.10
2023-02-25T19:43:08.893Z,4.12
2023-02-25T19:45:40.840Z,4.14
2023-02-25T19:48:10.833Z,4.21
2023-02-25T19:50:43.383Z,4.16
2023-02-25T19:53:13.492Z,4.16
2023-02-25T19:55:45.282Z,4.10
2023-02-25T19:58:15.154Z,4.02
2023-02-25T20:00:47.401Z,4.00
2023-02-25T20:03:17.282Z,4.01
2023-02-25T20:05:46.818Z,4.04
2023-02-25T20:08:17.151Z,3.96
2023-02-25T20:10:47.164Z,4.09
2023-02-25T20:13:16.786Z,4.10
2023-02-25T20:15:48.413Z,4.09
2023-02-25T20:18:18.238Z,4.22
2023-02-25T20:20:46.851Z,4.10
2023-02-25T20:23:16.444Z,4.06
2023-02-25T20:25:49.098Z,4.06
2023-02-25T20:28:24.571Z,4.12
2023-02-25T20:31:05.777Z,4.00
2023-02-25T20:33:38.654Z,3.96
2023-02-25T20:36:21.307Z,3.83
2023-02-25T20:39:13.342Z,3.86
2023-02-25T20:41:45.957Z,3.82
2023-02-25T20:44:16.810Z,3.88
2023-02-25T20:46:48.347Z,3.94
2023-02-25T20:49:20.671Z,3.94
2023-02-25T20:51:52.444Z,3.55
2023-02-25T20:54:22.909Z,3.47
2023-02-25T20:56:52.208Z,3.43
2023-02-25T20:59:22.580Z,3.49
2023-02-25T21:01:53.183Z,3.46
2023-02-25T21:04:23.054Z,3.45
2023-02-25T21:06:52.447Z,3.49
2023-02-25T21:09:25.297Z,3.46
2023-02-25T21:11:57.530Z,3.37
2023-02-25T21:14:27.649Z,3.37
2023-02-25T21:17:00.771Z,3.43
2023-02-25T21:19:29.736Z,3.41
2023-02-25T21:21:58.699Z,3.49
2023-02-25T21:24:29.628Z,3.47
2023-02-25T21:26:59.271Z,3.42
2023-02-25T21:29:32.495Z,3.40
2023-02-25T21:32:03.163Z,3.48
2023-02-25T21:34:33.573Z,3.56
2023-02-25T21:37:02.950Z,3.50
2023-02-25T21:39:32.540Z,3.38
2023-02-25T21:42:01.431Z,3.32
2023-02-25T21:44:29.991Z,3.23
2023-02-25T21:46:59.291Z,2.96
2023-02-25T21:49:31.511Z,2.86
2023-02-25T21:52:01.989Z,2.74
2023-02-25T21:54:30.848Z,2.69
2023-02-25T21:56:59.588Z,2.50
2023-02-25T21:59:28.878Z,2.50
2023-02-25T22:01:57.438Z,2.46
2023-02-25T22:04:25.809Z,2.41
2023-02-25T22:06:59.218Z,2.36
2023-02-25T22:09:34.038Z,2.36
2023-02-25T22:12:02.475Z,2.32
2023-02-25T22:14:30.642Z,2.29
2023-02-25T22:17:01.584Z,2.39
2023-02-25T22:19:30.068Z,2.36
2023-02-25T22:21:59.724Z,2.21
2023-02-25T22:24:27.897Z,2.26
2023-02-25T22:26:56.049Z,2.25
2023-02-25T22:29:24.381Z,2.20
2023-02-25T22:31:52.863Z,2.17
2023-02-25T22:34:21.722Z,2.02
2023-02-25T22:36:49.866Z,2.07
2023-02-25T22:39:19.389Z,2.12
2023-02-25T22:41:47.552Z,2.30
2023-02-25T22:44:15.766Z,2.26
2023-02-25T22:46:44.276Z,2.16
2023-02-25T22:49:13.014Z,2.14
2023-02-25T22:51:42.863Z,2.10
2023-02-25T22:54:11.516Z,1.91
2023-02-25T22:56:41.627Z,2.04
2023-02-25T22:59:10.556Z,1.94
2023-02-25T23:01:39.265Z,1.93
2023-02-25T23:04:08.534Z,2.06
2023-02-25T23:06:43.835Z,2.21
2023-02-25T23:09:13.314Z,2.19
2023-02-25T23:11:44.233Z,2.20
2023-02-25T23:14:12.619Z,2.19
2023-02-25T23:16:42.701Z,2.27
2023-02-25T23:19:13.523Z,2.31
2023-02-25T23:21:41.969Z,2.31
2023-02-25T23:24:14.000Z,2.16
2023-02-25T23:26:44.436Z,1.93
2023-02-25T23:29:13.373Z,1.99
2023-02-25T23:31:44.389Z,2.10
2023-02-25T23:34:14.913Z,2.16
2023-02-25T23:36:44.486Z,2.27
2023-02-25T23:39:14.130Z,2.32
2023-02-25T23:41:44.204Z,2.29
2023-02-25T23:44:13.608Z,2.30
2023-02-25T23:46:44.964Z,2.27
2023-02-25T23:49:15.031Z,2.31
2023-02-25T23:51:44.518Z,2.16
2023-02-25T23:54:16.480Z,2.23
2023-02-25T23:56:46.521Z,2.02
2023-02-25T23:59:15.011Z,1.95
